Terminal Aerodrome Forecast
Issued by NWS

Home | Current Version | Previous Version | Text Only | Print | Product List | Glossary On
Versions: 1 2 3 4 5 6 7 8 9 10 11 12 13 14 15
000
FTUS43 KMPX 312341
TAFRNH
TAF
KRNH 312341Z 0100/0124 06010KT P6SM OVC100
     FM010800 03017G24KT P6SM -SN OVC020
     FM011300 02016G22KT P6SM BKN025 OVC080
     FM011600 01013KT P6SM SCT020=

USA.gov is the U.S. government's official web portal to all federal, state and local government web resources and services.